Time;durP1;ratioP1;P1;durP2;ratioP2;P2;SDS_P1;SDS_P2;PMS_P1;PMS_P2;Temp;Humidity;BMP_temperature;BMP_pressure;BME280_temperature;BME280_humidity;BME280_pressure;Samples;Min_cycle;Max_cycle;Signal;HPM_P1;HPM_P2
2024/01/08 00:00:18;;;;;;;9.38;5.05;;;-1.60;99.90;;;;;;5032075;28;20038;-74
2024/01/08 00:02:46;;;;;;;15.40;6.80;;;-1.50;99.90;;;;;;5034288;28;20547;-75
2024/01/08 00:05:17;;;;;;;10.80;5.00;;;-1.50;99.90;;;;;;5034796;28;20060;-74
2024/01/08 00:07:43;;;;;;;9.50;5.18;;;-1.50;99.90;;;;;;5030254;28;20097;-74
2024/01/08 00:10:12;;;;;;;7.15;4.15;;;-1.50;99.90;;;;;;5024685;28;20555;-74
2024/01/08 00:12:40;;;;;;;10.50;4.50;;;-1.50;99.90;;;;;;5025600;28;20081;-74
2024/01/08 00:15:15;;;;;;;7.03;3.65;;;-1.60;99.90;;;;;;5027393;28;20034;-74
2024/01/08 00:17:40;;;;;;;8.00;4.32;;;-1.60;99.90;;;;;;5025918;28;20033;-73
2024/01/08 00:20:09;;;;;;;9.27;5.07;;;-1.60;99.90;;;;;;5025658;28;20021;-74
2024/01/08 00:22:34;;;;;;;8.57;4.75;;;-1.60;99.90;;;;;;5025157;28;20023;-74
2024/01/08 00:25:00;;;;;;;17.20;6.82;;;-1.50;99.90;;;;;;5026662;28;20032;-73
2024/01/08 00:27:26;;;;;;;8.50;4.57;;;-1.50;99.90;;;;;;5025545;28;20036;-74
2024/01/08 00:29:54;;;;;;;8.98;4.00;;;-1.50;99.90;;;;;;5028765;28;20117;-74
2024/01/08 00:32:26;;;;;;;5.88;3.45;;;-1.50;99.90;;;;;;5028384;28;20033;-74
2024/01/08 00:34:51;;;;;;;7.38;3.83;;;-1.50;99.90;;;;;;5023504;28;20168;-74
2024/01/08 00:37:23;;;;;;;7.70;3.53;;;-1.50;99.90;;;;;;5027061;28;20523;-74
2024/01/08 00:39:49;;;;;;;12.40;4.60;;;-1.50;99.90;;;;;;5029234;28;20087;-74
2024/01/08 00:42:17;;;;;;;7.38;3.58;;;-1.50;99.90;;;;;;5025401;28;20029;-74
2024/01/08 00:44:46;;;;;;;5.70;3.13;;;-1.50;99.90;;;;;;5031529;28;20029;-73
2024/01/08 00:47:12;;;;;;;5.07;2.92;;;-1.60;99.90;;;;;;5027457;28;20029;-74
2024/01/08 00:49:40;;;;;;;6.22;3.13;;;-1.70;99.90;;;;;;5029532;28;20404;-73
2024/01/08 00:52:15;;;;;;;6.63;2.90;;;-1.70;99.90;;;;;;5024034;28;20511;-74
2024/01/08 00:54:40;;;;;;;7.40;2.55;;;-1.60;99.90;;;;;;5027221;28;20510;-74
2024/01/08 00:57:06;;;;;;;4.57;3.03;;;-1.70;99.90;;;;;;5022999;28;20025;-74
2024/01/08 00:59:34;;;;;;;5.93;2.78;;;-1.70;99.90;;;;;;5026494;28;20044;-74
2024/01/08 01:02:06;;;;;;;5.78;2.92;;;-1.70;99.90;;;;;;5025951;28;20032;-73
2024/01/08 01:04:34;;;;;;;4.78;2.90;;;-1.70;99.90;;;;;;5041175;28;20105;-73
2024/01/08 01:07:00;;;;;;;5.35;2.83;;;-1.70;99.90;;;;;;5028057;28;20021;-73
2024/01/08 01:09:25;;;;;;;4.95;2.60;;;-1.70;99.90;;;;;;5026304;28;20029;-73
2024/01/08 01:11:51;;;;;;;4.00;2.55;;;-1.70;99.90;;;;;;5025802;28;20041;-73
2024/01/08 01:14:17;;;;;;;5.88;2.80;;;-1.60;99.90;;;;;;5025389;28;20028;-74
2024/01/08 01:16:45;;;;;;;3.95;2.58;;;-1.70;99.90;;;;;;5028335;28;20057;-74
2024/01/08 01:19:11;;;;;;;4.47;2.28;;;-1.70;99.90;;;;;;5026583;28;20030;-75
2024/01/08 01:21:39;;;;;;;6.57;2.78;;;-1.70;99.90;;;;;;5028364;28;20472;-74
2024/01/08 01:24:05;;;;;;;4.30;2.72;;;-1.70;99.90;;;;;;5025768;28;20025;-74
2024/01/08 01:26:31;;;;;;;3.95;2.60;;;-1.70;99.90;;;;;;5026966;28;20060;-74
2024/01/08 01:28:57;;;;;;;6.03;2.65;;;-1.70;99.90;;;;;;5024381;28;20501;-74
2024/01/08 01:31:25;;;;;;;4.90;2.40;;;-1.60;99.90;;;;;;5022532;28;20026;-74
2024/01/08 01:33:50;;;;;;;4.05;2.08;;;-1.70;99.90;;;;;;5026561;28;20463;-74
2024/01/08 01:36:16;;;;;;;5.15;2.45;;;-1.80;99.90;;;;;;5025186;28;20025;-74
2024/01/08 01:38:42;;;;;;;3.42;1.80;;;-1.80;99.90;;;;;;5026076;28;20117;-74
2024/01/08 01:41:07;;;;;;;3.67;1.98;;;-1.70;99.90;;;;;;5030574;28;20060;-75
2024/01/08 01:43:34;;;;;;;5.47;2.47;;;-1.70;99.90;;;;;;5025652;28;20412;-74
2024/01/08 01:46:07;;;;;;;4.28;2.65;;;-1.80;99.90;;;;;;5028108;28;20449;-75
2024/01/08 01:48:33;;;;;;;;;;;-1.80;99.90;;;;;;5028704;28;20530;-74
2024/01/08 01:50:59;;;;;;;4.78;2.15;;;-1.80;99.90;;;;;;5029363;28;19909;-74
2024/01/08 01:53:25;;;;;;;3.35;1.90;;;-1.90;99.90;;;;;;5026533;28;20025;-75
2024/01/08 01:55:54;;;;;;;6.40;3.30;;;-1.90;99.90;;;;;;5025654;28;20492;-75
2024/01/08 01:58:21;;;;;;;4.00;2.00;;;-1.90;99.90;;;;;;5025300;28;20029;-75
2024/01/08 02:00:47;;;;;;;5.90;2.83;;;-1.90;99.90;;;;;;5023075;28;20485;-75
2024/01/08 02:03:13;;;;;;;6.10;2.33;;;-1.90;99.90;;;;;;5024095;28;20029;-75
2024/01/08 02:05:39;;;;;;;3.72;1.90;;;-1.90;99.90;;;;;;5024139;28;20033;-74
2024/01/08 02:08:09;;;;;;;3.55;2.17;;;-1.90;99.90;;;;;;5027084;28;20568;-74
2024/01/08 02:10:39;;;;;;;3.97;2.38;;;-1.90;99.90;;;;;;5026951;28;20444;-74
2024/01/08 02:13:05;;;;;;;5.90;2.38;;;-1.80;99.90;;;;;;5027306;28;20083;-74
2024/01/08 02:15:31;;;;;;;6.43;2.85;;;-1.90;99.90;;;;;;5028733;28;20025;-74
2024/01/08 02:17:57;;;;;;;3.42;2.10;;;-1.90;99.90;;;;;;5027160;28;20041;-75
2024/01/08 02:20:22;;;;;;;3.22;2.28;;;-1.90;99.90;;;;;;5028845;28;20057;-74
2024/01/08 02:22:48;;;;;;;4.55;2.50;;;-1.90;99.90;;;;;;5028804;28;20045;-74
2024/01/08 02:25:16;;;;;;;3.47;1.98;;;-1.90;99.90;;;;;;5028331;28;20139;-74
2024/01/08 02:27:48;;;;;;;4.03;2.65;;;-1.90;99.90;;;;;;5027337;28;20034;-74
2024/01/08 02:30:19;;;;;;;5.13;2.47;;;-1.90;99.90;;;;;;5026251;28;20392;-74
2024/01/08 02:32:45;;;;;;;4.07;2.42;;;-1.90;99.90;;;;;;5022544;28;20041;-74
2024/01/08 02:35:10;;;;;;;4.70;2.25;;;-1.90;99.90;;;;;;5023312;28;20726;-73
2024/01/08 02:37:39;;;;;;;4.68;2.70;;;-1.90;99.90;;;;;;5036177;22;20044;-76
2024/01/08 02:40:11;;;;;;;4.63;2.53;;;-1.80;99.90;;;;;;4990656;28;20045;-76
2024/01/08 02:42:46;;;;;;;5.47;2.45;;;-1.90;99.90;;;;;;4986354;28;20370;-76
2024/01/08 02:45:14;;;;;;;3.55;2.40;;;-1.90;99.90;;;;;;4988185;28;20033;-76
2024/01/08 02:47:40;;;;;;;4.40;2.00;;;-1.90;99.90;;;;;;4990122;28;20033;-76
2024/01/08 02:50:07;;;;;;;7.30;3.38;;;-1.90;99.90;;;;;;4991452;28;20031;-76
2024/01/08 02:52:33;;;;;;;3.78;2.50;;;-1.90;99.90;;;;;;4992124;28;20109;-75
2024/01/08 02:54:59;;;;;;;3.47;2.15;;;-1.90;99.90;;;;;;4990720;28;20556;-75
2024/01/08 02:57:28;;;;;;;4.68;2.35;;;-1.90;99.90;;;;;;4985255;28;20146;-75
2024/01/08 02:59:57;;;;;;;4.60;2.70;;;-1.90;99.90;;;;;;4985498;28;20026;-76
2024/01/08 03:02:26;;;;;;;4.43;2.65;;;-2.00;99.90;;;;;;4983522;28;20548;-76
2024/01/08 03:04:55;;;;;;;4.43;2.47;;;-1.90;99.90;;;;;;4990263;28;20042;-76
2024/01/08 03:07:20;;;;;;;4.60;2.53;;;-1.80;99.90;;;;;;4986343;28;20491;-76
2024/01/08 03:09:49;;;;;;;4.13;2.40;;;-1.80;99.90;;;;;;4984806;28;20066;-76
2024/01/08 03:12:15;;;;;;;4.72;3.00;;;-1.90;99.90;;;;;;4986217;28;20567;-76
2024/01/08 03:14:42;;;;;;;5.13;2.97;;;-1.80;99.90;;;;;;4984916;28;20038;-76
2024/01/08 03:17:08;;;;;;;4.50;2.67;;;-1.90;99.90;;;;;;4987481;28;20481;-76
2024/01/08 03:19:33;;;;;;;4.57;2.65;;;-1.80;99.90;;;;;;4984122;28;20066;-76
2024/01/08 03:22:04;;;;;;;4.10;2.53;;;-1.80;99.90;;;;;;4985725;28;20062;-75
2024/01/08 03:24:30;;;;;;;5.18;2.67;;;-1.70;99.90;;;;;;4988753;28;20500;-75
2024/01/08 03:26:56;;;;;;;5.68;3.13;;;-1.80;99.90;;;;;;4989753;28;20500;-75
2024/01/08 03:29:28;;;;;;;5.72;2.58;;;-1.80;99.90;;;;;;4989640;28;20046;-75
2024/01/08 03:31:56;;;;;;;5.88;3.00;;;-1.80;99.90;;;;;;4984939;28;20019;-75
2024/01/08 03:34:22;;;;;;;6.22;3.15;;;-1.80;99.90;;;;;;4984415;28;20029;-76
2024/01/08 03:36:48;;;;;;;5.75;2.80;;;-1.80;99.90;;;;;;4991889;28;20038;-75
2024/01/08 03:39:14;;;;;;;5.30;3.00;;;-1.70;99.90;;;;;;4987940;28;20038;-75
2024/01/08 03:41:40;;;;;;;5.53;3.13;;;-1.70;99.90;;;;;;4988237;28;20400;-75
2024/01/08 03:44:07;;;;;;;5.72;2.72;;;-1.70;99.90;;;;;;4990412;28;20354;-75
2024/01/08 03:46:36;;;;;;;5.65;3.17;;;-1.70;99.90;;;;;;4992371;28;20022;-75
2024/01/08 03:49:03;;;;;;;4.50;2.80;;;-1.70;99.90;;;;;;4988061;28;20322;-75
2024/01/08 03:51:30;;;;;;;5.82;3.25;;;-1.70;99.90;;;;;;4990716;28;20018;-74
2024/01/08 03:53:55;;;;;;;4.50;3.00;;;-1.70;99.90;;;;;;4988340;28;20053;-74
2024/01/08 03:56:21;;;;;;;5.70;3.22;;;-1.60;99.90;;;;;;4987580;28;20026;-75
2024/01/08 03:58:47;;;;;;;5.38;2.53;;;-1.60;99.90;;;;;;4988130;28;20481;-75
2024/01/08 04:01:12;;;;;;;4.20;2.50;;;-1.60;99.90;;;;;;4991797;28;20106;-75
2024/01/08 04:03:38;;;;;;;5.60;2.97;;;-1.60;99.90;;;;;;4990886;28;20050;-75
2024/01/08 04:06:12;;;;;;;6.05;2.83;;;-1.60;99.90;;;;;;4988599;28;20378;-74
2024/01/08 04:08:38;;;;;;;4.65;3.00;;;-1.70;99.90;;;;;;4994567;28;20037;-75
2024/01/08 04:11:03;;;;;;;5.22;3.17;;;-1.70;99.90;;;;;;4992339;28;20393;-75
2024/01/08 04:13:32;;;;;;;6.35;3.05;;;-1.70;99.90;;;;;;4990290;28;20038;-76
2024/01/08 04:15:58;;;;;;;7.82;3.00;;;-1.70;99.90;;;;;;4982513;28;20478;-76
2024/01/08 04:18:29;;;;;;;5.38;2.95;;;-1.70;99.90;;;;;;4989782;28;20033;-76
2024/01/08 04:20:55;;;;;;;5.38;3.00;;;-1.70;99.90;;;;;;4986311;28;20030;-76
2024/01/08 04:23:21;;;;;;;5.22;3.00;;;-1.70;99.90;;;;;;4989219;28;20027;-76
2024/01/08 04:25:46;;;;;;;4.45;2.70;;;-1.60;99.90;;;;;;4994427;28;20026;-76
2024/01/08 04:28:12;;;;;;;5.70;2.78;;;-1.60;99.90;;;;;;5005704;28;20555;-76
2024/01/08 04:30:40;;;;;;;5.10;2.72;;;-1.80;99.90;;;;;;4988721;28;20034;-74
2024/01/08 04:33:09;;;;;;;6.68;3.17;;;-1.80;99.90;;;;;;4989419;28;20440;-75
2024/01/08 04:35:34;;;;;;;5.47;2.78;;;-1.70;99.90;;;;;;5003504;28;20026;-75
2024/01/08 04:38:00;;;;;;;6.45;2.70;;;-1.80;99.90;;;;;;4988624;28;20560;-75
2024/01/08 04:40:26;;;;;;;5.57;3.42;;;-1.80;99.90;;;;;;4988415;28;20063;-75
2024/01/08 04:42:51;;;;;;;6.30;3.05;;;-1.70;99.90;;;;;;5007258;28;20018;-75
2024/01/08 04:45:17;;;;;;;4.78;2.70;;;-1.70;99.90;;;;;;4986903;28;20089;-75
2024/01/08 04:47:45;;;;;;;4.50;2.70;;;-1.80;99.90;;;;;;5003446;28;20033;-75
2024/01/08 04:50:14;;;;;;;4.97;2.75;;;-1.80;99.90;;;;;;4989876;28;20026;-75
2024/01/08 04:52:39;;;;;;;4.60;3.03;;;-1.70;99.90;;;;;;5002365;28;20126;-75
2024/01/08 04:55:12;;;;;;;6.88;3.10;;;-1.70;99.90;;;;;;4989924;28;20539;-75
2024/01/08 04:57:41;;;;;;;5.40;2.97;;;-1.70;99.90;;;;;;4986375;28;20034;-75
2024/01/08 05:00:13;;;;;;;4.57;2.38;;;-1.70;99.90;;;;;;4986063;28;20294;-75
2024/01/08 05:02:41;;;;;;;5.68;2.50;;;-1.70;99.90;;;;;;4985246;28;20036;-75
2024/01/08 05:05:11;;;;;;;6.25;2.92;;;-1.80;99.90;;;;;;5002069;28;20861;-75
2024/01/08 05:07:43;;;;;;;3.88;2.60;;;-1.80;99.90;;;;;;4983351;28;20026;-75
2024/01/08 05:10:11;;;;;;;6.20;2.63;;;-1.80;99.90;;;;;;4986485;28;20036;-75
2024/01/08 05:12:40;;;;;;;3.50;2.63;;;-1.80;99.90;;;;;;4988482;28;20505;-75
2024/01/08 05:15:12;;;;;;;4.80;2.47;;;-1.80;99.90;;;;;;4986433;28;20030;-75
2024/01/08 05:17:37;;;;;;;3.63;2.28;;;-1.80;99.90;;;;;;4985690;28;20038;-75
2024/01/08 05:20:04;;;;;;;4.15;2.30;;;-1.80;99.90;;;;;;4987309;28;20038;-75
2024/01/08 05:22:32;;;;;;;3.75;2.50;;;-1.80;99.90;;;;;;4985018;28;20061;-75
2024/01/08 05:24:57;;;;;;;4.30;2.60;;;-1.70;99.90;;;;;;5002516;28;20019;-75
2024/01/08 05:27:23;;;;;;;6.10;2.90;;;-1.70;99.90;;;;;;5003087;28;20153;-75
2024/01/08 05:29:49;;;;;;;4.72;2.45;;;-1.70;99.90;;;;;;4984803;28;20098;-75
2024/01/08 05:32:14;;;;;;;4.43;2.75;;;-1.70;99.90;;;;;;4993663;28;20030;-75
2024/01/08 05:34:41;;;;;;;4.78;2.20;;;-1.70;99.90;;;;;;4988093;28;20041;-75
2024/01/08 05:37:07;;;;;;;5.68;2.42;;;-1.80;99.90;;;;;;4989231;28;20476;-76
2024/01/08 05:39:36;;;;;;;4.30;2.35;;;-1.80;99.90;;;;;;4989816;28;20031;-75
2024/01/08 05:42:02;;;;;;;5.53;2.80;;;-1.70;99.90;;;;;;4986641;28;20030;-74
2024/01/08 05:44:28;;;;;;;4.88;2.83;;;-1.80;99.90;;;;;;4987132;28;20049;-75
2024/01/08 05:46:56;;;;;;;7.35;2.85;;;-1.80;99.90;;;;;;4993380;28;20032;-75
2024/01/08 05:49:22;;;;;;;5.95;2.90;;;-1.80;99.90;;;;;;5007752;28;20023;-75
2024/01/08 05:51:47;;;;;;;6.20;3.13;;;-1.80;99.90;;;;;;4996002;28;20354;-75
2024/01/08 05:54:16;;;;;;;5.57;2.83;;;-1.80;99.90;;;;;;4990444;28;20030;-76
2024/01/08 05:56:41;;;;;;;7.50;3.13;;;-1.80;99.90;;;;;;4993490;28;20034;-76
2024/01/08 05:59:07;;;;;;;4.28;2.88;;;-1.80;99.90;;;;;;4991741;28;20088;-75
2024/01/08 06:01:34;;;;;;;7.00;3.38;;;-1.80;99.90;;;;;;4988892;28;20114;-74
2024/01/08 06:04:00;;;;;;;5.63;2.97;;;-1.80;99.90;;;;;;4989528;28;20026;-75
2024/01/08 06:06:25;;;;;;;8.80;3.42;;;-1.80;99.90;;;;;;4988760;28;20503;-75
2024/01/08 06:08:51;;;;;;;5.88;2.97;;;-1.80;99.90;;;;;;4989406;28;20026;-68
2024/01/08 06:11:19;;;;;;;9.38;3.80;;;-1.60;99.90;;;;;;4982012;28;20038;-68
2024/01/08 06:13:45;;;;;;;4.78;3.08;;;-1.50;99.90;;;;;;4990298;28;20034;-75
2024/01/08 06:16:15;;;;;;;7.13;2.67;;;-1.40;99.90;;;;;;4987309;28;20034;-75
2024/01/08 06:18:41;;;;;;;6.20;3.35;;;-1.40;99.90;;;;;;4993626;28;20435;-75
2024/01/08 06:21:07;;;;;;;6.53;3.55;;;-1.50;99.90;;;;;;4992664;28;20157;-75
2024/01/08 06:23:32;;;;;;;6.38;3.50;;;-1.60;99.90;;;;;;4992500;28;20512;-75
2024/01/08 06:26:00;;;;;;;7.68;3.92;;;-1.60;99.90;;;;;;5005125;28;20022;-75
2024/01/08 06:28:25;;;;;;;4.78;3.22;;;-1.70;99.90;;;;;;4985445;28;20026;-75
2024/01/08 06:30:51;;;;;;;5.95;3.47;;;-1.70;99.90;;;;;;5004213;28;20388;-75
2024/01/08 06:33:16;;;;;;;6.43;3.67;;;-1.70;99.90;;;;;;4986504;28;20112;-75
2024/01/08 06:35:42;;;;;;;7.85;3.42;;;-1.80;99.90;;;;;;4984154;28;20042;-74
2024/01/08 06:38:08;;;;;;;6.35;3.70;;;-1.90;99.90;;;;;;4982541;28;20046;-75
2024/01/08 06:40:34;;;;;;;5.85;3.35;;;-1.90;99.90;;;;;;4984222;28;20109;-76
2024/01/08 06:43:00;;;;;;;6.28;2.90;;;-2.00;99.90;;;;;;4978836;28;20058;-75
2024/01/08 06:45:25;;;;;;;6.50;3.58;;;-2.00;99.90;;;;;;4987757;28;20030;-76
2024/01/08 06:47:51;;;;;;;4.75;3.05;;;-1.90;99.90;;;;;;4981976;28;20554;-76
2024/01/08 06:50:17;;;;;;;7.13;3.30;;;-1.90;99.90;;;;;;4983116;28;20053;-75
2024/01/08 06:52:42;;;;;;;5.55;3.45;;;-2.00;99.90;;;;;;4986492;28;20156;-74
2024/01/08 06:55:12;;;;;;;6.28;3.42;;;-2.00;99.90;;;;;;4989867;28;20602;-74
2024/01/08 06:57:38;;;;;;;5.28;3.50;;;-2.00;99.90;;;;;;4983882;28;20038;-75
2024/01/08 07:00:08;;;;;;;6.03;3.90;;;-2.00;99.90;;;;;;4982957;28;20556;-74
2024/01/08 07:02:33;;;;;;;7.53;4.15;;;-2.00;99.90;;;;;;4984777;28;20440;-75
2024/01/08 07:05:08;;;;;;;8.68;4.03;;;-2.00;99.90;;;;;;4989234;28;23774;-75
2024/01/08 07:07:37;;;;;;;7.95;4.00;;;-2.00;99.90;;;;;;4989089;28;20027;-75
2024/01/08 07:10:04;;;;;;;5.30;3.67;;;-2.00;99.90;;;;;;4981400;28;20499;-74
2024/01/08 07:12:32;;;;;;;7.70;3.92;;;-2.10;99.90;;;;;;4990420;28;20022;-74
2024/01/08 07:14:58;;;;;;;6.32;3.92;;;-2.10;99.90;;;;;;4989777;28;20041;-75
2024/01/08 07:17:26;;;;;;;6.60;3.50;;;-2.00;99.90;;;;;;4992677;28;20031;-75
2024/01/08 07:19:52;;;;;;;6.35;3.20;;;-2.00;99.90;;;;;;4984805;28;20092;-74
2024/01/08 07:22:17;;;;;;;9.25;4.05;;;-2.00;99.90;;;;;;4991224;28;20544;-76
2024/01/08 07:24:49;;;;;;;11.23;4.40;;;-1.90;99.90;;;;;;4987885;28;20022;-75
2024/01/08 07:27:17;;;;;;;8.13;3.70;;;-1.90;99.90;;;;;;4992376;28;20034;-75
2024/01/08 07:29:46;;;;;;;8.38;5.07;;;-1.90;99.90;;;;;;4993013;28;20038;-75
2024/01/08 07:32:12;;;;;;;6.40;3.65;;;-1.90;99.90;;;;;;4988549;28;20030;-74
2024/01/08 07:34:38;;;;;;;9.52;4.43;;;-1.90;99.90;;;;;;5006571;28;20034;-75
2024/01/08 07:37:10;;;;;;;7.75;4.30;;;-1.80;99.90;;;;;;4989781;28;20055;-75
2024/01/08 07:39:38;;;;;;;5.95;3.40;;;-1.80;99.90;;;;;;4990428;28;20408;-74
2024/01/08 07:42:08;;;;;;;6.93;3.95;;;-1.80;99.90;;;;;;4990144;28;20053;-74
2024/01/08 07:44:40;;;;;;;8.50;4.20;;;-1.90;99.90;;;;;;4989019;28;20097;-74
2024/01/08 07:47:05;;;;;;;8.48;4.22;;;-1.80;99.90;;;;;;4985715;28;20092;-74
2024/01/08 07:49:34;;;;;;;6.82;3.65;;;-1.90;99.90;;;;;;4985833;28;20030;-75
2024/01/08 07:51:59;;;;;;;7.25;3.85;;;-1.80;99.90;;;;;;5002565;28;20499;-74
2024/01/08 07:54:26;;;;;;;6.07;4.05;;;-1.80;99.90;;;;;;4989419;28;20064;-74
2024/01/08 07:56:54;;;;;;;6.90;3.72;;;-1.90;99.90;;;;;;4989228;28;20019;-74
2024/01/08 07:59:26;;;;;;;6.53;4.47;;;-1.80;99.90;;;;;;4988555;28;20113;-75
2024/01/08 08:01:52;;;;;;;10.27;4.25;;;-1.90;99.90;;;;;;4992243;28;20022;-76
2024/01/08 08:04:17;;;;;;;8.38;4.40;;;-1.90;99.90;;;;;;4989681;28;20488;-75
2024/01/08 08:06:46;;;;;;;6.85;3.85;;;-1.90;99.90;;;;;;4985149;28;20058;-75
2024/01/08 08:09:12;;;;;;;8.35;3.80;;;-1.90;99.90;;;;;;4985761;28;20057;-75
2024/01/08 08:11:39;;;;;;;8.18;4.68;;;-2.00;99.90;;;;;;4991429;28;20030;-75
2024/01/08 08:14:05;;;;;;;10.90;4.65;;;-2.00;99.90;;;;;;4993610;28;20384;-76
2024/01/08 08:16:31;;;;;;;10.27;4.85;;;-1.90;99.90;;;;;;4993571;28;20026;-76
2024/01/08 08:18:59;;;;;;;10.77;5.32;;;-1.90;99.90;;;;;;4991964;28;20085;-76
2024/01/08 08:21:28;;;;;;;12.40;4.93;;;-1.90;99.90;;;;;;4984028;28;20042;-76
2024/01/08 08:23:57;;;;;;;12.07;4.85;;;-1.90;99.90;;;;;;4992783;28;20397;-76
2024/01/08 08:26:24;;;;;;;9.55;4.68;;;-1.90;99.90;;;;;;4990065;28;20472;-76
2024/01/08 08:28:56;;;;;;;7.63;4.35;;;-1.90;99.90;;;;;;4991495;28;20018;-76
2024/01/08 08:31:24;;;;;;;11.93;5.05;;;-1.90;99.90;;;;;;4996027;28;20857;-76
2024/01/08 08:33:50;;;;;;;7.88;4.70;;;-1.90;99.90;;;;;;5001380;28;20042;-76
2024/01/08 08:36:15;;;;;;;9.80;4.43;;;-1.90;99.90;;;;;;4995052;28;20030;-76
2024/01/08 08:38:41;;;;;;;8.65;4.15;;;-1.80;99.90;;;;;;4994371;28;20042;-75
2024/01/08 08:41:07;;;;;;;9.98;4.70;;;-1.90;99.90;;;;;;4994783;28;20034;-75
2024/01/08 08:43:33;;;;;;;9.07;4.85;;;-1.90;99.90;;;;;;5007087;28;20056;-76
2024/01/08 08:45:59;;;;;;;9.13;4.65;;;-1.90;99.90;;;;;;4988054;28;20085;-76
2024/01/08 08:48:25;;;;;;;6.75;3.65;;;-1.90;99.90;;;;;;4990624;28;20030;-75
2024/01/08 08:50:51;;;;;;;11.27;4.40;;;-1.90;99.90;;;;;;4991088;28;20022;-75
2024/01/08 08:53:16;;;;;;;7.72;3.92;;;-1.90;99.90;;;;;;4991296;28;20357;-75
2024/01/08 08:55:42;;;;;;;9.00;4.47;;;-2.00;99.90;;;;;;4990251;28;20057;-76
2024/01/08 08:58:09;;;;;;;9.80;4.32;;;-1.90;99.90;;;;;;4989021;28;20096;-76
2024/01/08 09:00:36;;;;;;;10.68;5.18;;;-1.90;99.90;;;;;;4990119;28;20022;-76
2024/01/08 09:03:05;;;;;;;10.30;3.83;;;-1.90;99.90;;;;;;4990245;28;20045;-75
2024/01/08 09:05:49;;;;;;;8.70;4.05;;;-1.80;99.90;;;;;;4991710;28;20485;-76
2024/01/08 09:08:15;;;;;;;8.38;4.40;;;-1.80;99.90;;;;;;4987526;28;20542;-76
2024/01/08 09:10:47;;;;;;;7.80;4.68;;;-1.80;99.90;;;;;;4993163;28;20034;-76
2024/01/08 09:13:13;;;;;;;8.82;4.55;;;-1.80;99.90;;;;;;4990310;28;20085;-76
2024/01/08 09:15:38;;;;;;;7.50;4.07;;;-1.80;99.90;;;;;;4986911;28;20030;-77
2024/01/08 09:18:07;;;;;;;8.73;4.45;;;-1.70;99.90;;;;;;4988590;28;20496;-76
2024/01/08 09:20:42;;;;;;;7.78;4.45;;;-1.70;99.90;;;;;;4987967;28;20227;-76
2024/01/08 09:23:08;;;;;;;7.40;3.78;;;-1.80;99.90;;;;;;4986866;28;20029;-76
2024/01/08 09:25:36;;;;;;;6.45;3.95;;;-1.80;99.90;;;;;;4991246;28;20023;-77
2024/01/08 09:28:14;;;;;;;9.88;4.43;;;-1.80;99.90;;;;;;4988996;28;20061;-76
2024/01/08 09:30:47;;;;;;;6.63;3.67;;;-1.80;99.90;;;;;;4987808;28;20615;-75
2024/01/08 09:33:16;;;;;;;9.07;4.30;;;-1.80;99.90;;;;;;4991443;28;20022;-75
2024/01/08 09:35:42;;;;;;;8.18;4.80;;;-1.80;99.90;;;;;;4992565;28;20092;-75
2024/01/08 09:38:10;;;;;;;7.88;4.13;;;-1.80;99.90;;;;;;4989707;28;20030;-76
2024/01/08 09:40:36;;;;;;;5.85;3.92;;;-1.80;99.90;;;;;;4986919;28;20033;-76
2024/01/08 09:43:09;;;;;;;6.68;3.90;;;-1.80;99.90;;;;;;4991164;28;20037;-76
2024/01/08 09:46:05;;;;;;;8.50;4.80;;;-1.80;99.90;;;;;;4990212;28;20373;-77
2024/01/08 09:48:35;;;;;;;7.60;4.03;;;-1.80;99.90;;;;;;4987254;28;20415;-76
2024/01/08 09:51:05;;;;;;;6.60;4.22;;;-1.90;99.90;;;;;;5006168;28;20023;-76
2024/01/08 09:53:32;;;;;;;7.45;3.97;;;-1.90;99.90;;;;;;4988032;28;20553;-76
2024/01/08 09:55:59;;;;;;;8.98;3.92;;;-2.00;99.90;;;;;;4988727;28;20125;-75
2024/01/08 09:58:25;;;;;;;8.10;4.30;;;-2.00;99.90;;;;;;4988439;28;20034;-75
2024/01/08 10:00:51;;;;;;;10.55;4.05;;;-2.00;99.90;;;;;;4987274;28;20026;-77
2024/01/08 10:03:20;;;;;;;10.68;4.65;;;-2.00;99.90;;;;;;5002462;28;20026;-77
2024/01/08 10:05:49;;;;;;;8.50;3.92;;;-2.00;99.90;;;;;;4989010;28;20025;-77
2024/01/08 10:08:17;;;;;;;9.75;5.15;;;-1.90;99.90;;;;;;4990040;28;20022;-76
2024/01/08 10:10:43;;;;;;;9.63;4.00;;;-1.90;99.90;;;;;;4992165;28;20033;-78
2024/01/08 10:13:12;;;;;;;9.27;4.13;;;-1.90;99.90;;;;;;4987381;28;20038;-77
2024/01/08 10:15:47;;;;;;;7.65;3.85;;;-1.90;99.90;;;;;;4990132;28;20484;-77
2024/01/08 10:18:16;;;;;;;7.45;3.90;;;-1.90;99.90;;;;;;4991510;28;20027;-77
2024/01/08 10:20:44;;;;;;;7.57;3.90;;;-1.80;99.90;;;;;;4990668;28;20528;-77
2024/01/08 10:23:10;;;;;;;8.45;3.95;;;-1.80;99.90;;;;;;4986687;28;20023;-77
2024/01/08 10:25:37;;;;;;;9.13;3.60;;;-1.90;99.90;;;;;;4992323;28;20024;-77
2024/01/08 10:28:12;;;;;;;7.53;3.70;;;-1.80;99.90;;;;;;4989807;28;20049;-77
2024/01/08 10:30:41;;;;;;;8.00;4.05;;;-1.90;99.90;;;;;;4988477;28;20378;-76
2024/01/08 10:33:13;;;;;;;6.97;3.83;;;-1.90;99.90;;;;;;5007028;28;20560;-76
2024/01/08 10:35:40;;;;;;;7.38;3.58;;;-1.90;99.90;;;;;;4990586;28;20165;-76
2024/01/08 10:38:07;;;;;;;5.40;3.50;;;-1.80;99.90;;;;;;4990245;28;20057;-76
2024/01/08 10:40:33;;;;;;;7.82;3.45;;;-1.80;99.90;;;;;;4990446;28;20026;-77
2024/01/08 10:42:59;;;;;;;7.63;3.90;;;-1.80;99.90;;;;;;4989227;28;20018;-77
2024/01/08 10:45:24;;;;;;;6.43;3.38;;;-1.80;99.90;;;;;;4989894;28;20036;-76
2024/01/08 10:48:16;;;;;;;8.45;3.97;;;-1.80;99.90;;;;;;4984801;28;20054;-77
2024/01/08 10:50:45;;;;;;;6.97;3.55;;;-1.80;99.90;;;;;;5006314;28;20186;-77
2024/01/08 10:53:27;;;;;;;5.68;3.53;;;-1.90;99.90;;;;;;5006579;28;25081;-77
2024/01/08 10:55:52;;;;;;;5.80;2.92;;;-1.90;99.90;;;;;;4984280;28;20027;-76
2024/01/08 10:58:33;;;;;;;7.15;3.78;;;-1.90;99.90;;;;;;4988095;28;20520;-77
2024/01/08 11:01:00;;;;;;;6.05;3.47;;;-1.90;99.90;;;;;;4987492;28;20098;-77
2024/01/08 11:03:27;;;;;;;7.53;3.65;;;-1.90;99.90;;;;;;4984153;28;20022;-77
2024/01/08 11:06:03;;;;;;;7.72;3.70;;;-1.90;99.90;;;;;;4983700;28;20537;-77
2024/01/08 11:08:31;;;;;;;6.75;3.40;;;-1.80;99.90;;;;;;4998628;28;20062;-76
2024/01/08 11:11:05;;;;;;;6.28;3.25;;;-1.80;99.90;;;;;;4983746;28;20493;-77
2024/01/08 11:13:31;;;;;;;7.72;3.30;;;-1.80;99.90;;;;;;4987489;28;20057;-77
2024/01/08 11:16:00;;;;;;;8.05;3.13;;;-1.80;99.90;;;;;;4980437;28;20027;-78
2024/01/08 11:18:26;;;;;;;6.55;3.47;;;-1.90;99.90;;;;;;4983809;28;20019;-77
2024/01/08 11:20:52;;;;;;;5.88;3.58;;;-1.90;99.90;;;;;;4983684;28;20037;-77
2024/01/08 11:23:42;;;;;;;6.93;3.83;;;-1.80;99.90;;;;;;4995955;28;20394;-77
2024/01/08 11:26:21;;;;;;;8.50;3.60;;;-1.80;99.90;;;;;;4979229;28;20421;-78
2024/01/08 11:29:00;;;;;;;6.85;3.50;;;-1.70;99.90;;;;;;4986168;28;20034;-77
2024/01/08 11:31:43;;;;;;;7.13;3.30;;;-1.60;99.90;;;;;;5004308;28;20815;-75
2024/01/08 11:34:28;;;;;;;6.55;3.83;;;-1.60;99.90;;;;;;4983747;28;20081;-75
2024/01/08 11:37:03;;;;;;;8.73;4.18;;;-1.60;99.90;;;;;;4986427;28;20026;-77
2024/01/08 11:39:38;;;;;;;7.72;3.83;;;-1.60;99.90;;;;;;4988750;28;20034;-77
2024/01/08 11:42:13;;;;;;;8.27;3.38;;;-1.50;99.90;;;;;;4985048;28;20043;-77
2024/01/08 11:44:39;;;;;;;7.05;3.40;;;-1.40;99.90;;;;;;4989054;28;20044;-77
2024/01/08 11:47:04;;;;;;;7.78;3.70;;;-1.50;99.90;;;;;;4998209;28;20030;-77
2024/01/08 11:49:30;;;;;;;5.50;3.35;;;-1.50;99.90;;;;;;4986973;28;20037;-77
2024/01/08 11:52:00;;;;;;;6.85;3.60;;;-1.50;99.90;;;;;;4985694;28;20026;-77
2024/01/08 11:54:27;;;;;;;7.97;3.70;;;-1.50;99.90;;;;;;4989347;28;20358;-77
2024/01/08 11:56:56;;;;;;;9.13;3.40;;;-1.50;99.90;;;;;;4991641;28;20030;-77
2024/01/08 11:59:35;;;;;;;6.60;3.63;;;-1.50;99.90;;;;;;4996845;28;20042;-77
2024/01/08 12:02:18;;;;;;;8.45;3.70;;;-1.50;99.90;;;;;;4991789;28;20049;-77
2024/01/08 12:05:02;;;;;;;9.02;4.28;;;-1.40;99.90;;;;;;4989831;28;20035;-77
2024/01/08 12:07:28;;;;;;;;;;;-1.40;99.90;;;;;;4990979;28;20109;-77
2024/01/08 12:09:59;;;;;;;8.00;3.55;;;-1.30;99.90;;;;;;4988365;28;19918;-77
2024/01/08 12:12:25;;;;;;;5.50;3.30;;;-1.20;99.90;;;;;;4989950;28;20030;-77
2024/01/08 12:14:52;;;;;;;6.07;3.35;;;-1.20;99.90;;;;;;4989266;28;20496;-77
2024/01/08 12:17:22;;;;;;;9.13;3.67;;;-1.30;99.90;;;;;;4993022;28;20030;-77
2024/01/08 12:19:48;;;;;;;6.70;3.10;;;-1.30;99.90;;;;;;4992588;28;20034;-77
2024/01/08 12:22:16;;;;;;;6.28;3.38;;;-1.40;99.90;;;;;;4994277;28;20393;-77
2024/01/08 12:24:58;;;;;;;7.22;3.97;;;-1.40;99.90;;;;;;4992902;28;20061;-77
2024/01/08 12:27:31;;;;;;;7.57;3.95;;;-1.30;99.90;;;;;;4992224;28;20121;-77
2024/01/08 12:29:58;;;;;;;8.25;3.85;;;-1.40;99.90;;;;;;4991688;28;20045;-76
2024/01/08 12:32:25;;;;;;;6.20;3.63;;;-1.30;99.90;;;;;;4994813;28;20401;-77
2024/01/08 12:34:51;;;;;;;9.20;3.67;;;-1.30;99.90;;;;;;4992326;28;20038;-76
2024/01/08 12:37:19;;;;;;;8.48;3.90;;;-1.30;99.90;;;;;;5006660;28;20465;-76
2024/01/08 12:39:45;;;;;;;6.40;3.53;;;-1.40;99.90;;;;;;4988637;28;20041;-77
2024/01/08 12:42:13;;;;;;;8.38;3.80;;;-1.40;99.90;;;;;;4994440;28;20026;-75
2024/01/08 12:44:50;;;;;;;9.00;4.20;;;-1.40;99.90;;;;;;4991437;28;20065;-77
2024/01/08 12:47:16;;;;;;;9.10;4.60;;;-1.40;99.90;;;;;;4991539;28;20302;-76
2024/01/08 12:49:41;;;;;;;6.63;3.67;;;-1.30;99.90;;;;;;5005272;28;20370;-76
2024/01/08 12:52:07;;;;;;;8.90;4.85;;;-1.30;99.90;;;;;;4990582;28;20040;-76